createdAt,value
2022-11-05T00:02:33.153Z,2.15
2022-11-05T00:05:18.392Z,2.00
2022-11-05T00:08:08.301Z,2.25
2022-11-05T00:10:38.371Z,2.47
2022-11-05T00:13:26.816Z,2.60
2022-11-05T00:16:12.668Z,2.70
2022-11-05T00:18:42.095Z,2.70
2022-11-05T00:21:30.160Z,2.33
2022-11-05T00:24:18.208Z,2.65
2022-11-05T00:26:49.991Z,1.88
2022-11-05T00:29:18.099Z,2.42
2022-11-05T00:31:46.153Z,2.25
2022-11-05T00:34:15.517Z,2.17
2022-11-05T00:36:43.593Z,2.17
2022-11-05T00:39:11.777Z,2.35
2022-11-05T00:41:39.852Z,2.20
2022-11-05T00:44:25.267Z,2.15
2022-11-05T00:47:13.548Z,2.22
2022-11-05T00:49:41.909Z,2.30
2022-11-05T00:52:23.717Z,2.13
2022-11-05T00:54:51.810Z,2.45
2022-11-05T00:57:19.881Z,2.17
2022-11-05T00:59:47.902Z,2.28
2022-11-05T01:02:16.141Z,1.88
2022-11-05T01:04:45.622Z,2.25
2022-11-05T01:07:13.660Z,2.33
2022-11-05T01:09:41.633Z,2.63
2022-11-05T01:12:09.581Z,2.85
2022-11-05T01:14:37.645Z,2.58
2022-11-05T01:17:05.612Z,2.58
2022-11-05T01:19:33.886Z,2.88
2022-11-05T01:22:03.267Z,2.72
2022-11-05T01:24:31.258Z,2.67
2022-11-05T01:26:59.303Z,3.00
2022-11-05T01:29:27.302Z,3.05
2022-11-05T01:31:55.340Z,2.50
2022-11-05T01:34:23.363Z,2.85
2022-11-05T01:36:51.378Z,2.72
2022-11-05T01:39:20.769Z,2.65
2022-11-05T01:41:48.771Z,2.75
2022-11-05T01:44:51.835Z,2.60
2022-11-05T01:47:28.679Z,3.00
2022-11-05T01:50:01.428Z,2.92
2022-11-05T01:52:31.171Z,2.72
2022-11-05T01:55:00.868Z,2.78
2022-11-05T01:57:29.961Z,2.47
2022-11-05T02:00:00.899Z,2.97
2022-11-05T02:02:30.228Z,3.20
2022-11-05T02:05:02.161Z,2.80
2022-11-05T02:07:31.621Z,3.00
2022-11-05T02:10:05.151Z,3.00
2022-11-05T02:12:34.335Z,3.42
2022-11-05T02:15:02.489Z,3.42
2022-11-05T02:17:44.250Z,3.80
2022-11-05T02:20:29.681Z,2.97
2022-11-05T02:23:40.320Z,3.00
2022-11-05T02:26:44.383Z,3.05
2022-11-05T02:29:45.264Z,3.05
2022-11-05T02:32:23.382Z,3.38
2022-11-05T02:34:57.694Z,3.10
2022-11-05T02:37:39.043Z,3.38
2022-11-05T02:40:14.636Z,3.40
2022-11-05T02:42:46.636Z,2.80
2022-11-05T02:45:27.218Z,3.55
2022-11-05T02:48:02.994Z,3.40
2022-11-05T02:50:36.072Z,3.33
2022-11-05T02:53:09.545Z,3.20
2022-11-05T02:55:41.221Z,3.13
2022-11-05T02:58:10.097Z,3.40
2022-11-05T03:00:47.555Z,3.53
2022-11-05T03:03:25.933Z,3.08
2022-11-05T03:06:09.438Z,3.72
2022-11-05T03:08:51.887Z,2.88
2022-11-05T03:11:22.772Z,3.65
2022-11-05T03:13:58.973Z,3.42
2022-11-05T03:16:34.085Z,3.28
2022-11-05T03:19:11.388Z,3.63
2022-11-05T03:21:46.301Z,3.85
2022-11-05T03:24:18.291Z,3.33
2022-11-05T03:26:51.482Z,4.18
2022-11-05T03:29:23.673Z,3.05
2022-11-05T03:31:54.589Z,3.20
2022-11-05T03:34:32.850Z,3.10
2022-11-05T03:37:03.664Z,3.38
2022-11-05T03:39:37.144Z,3.80
2022-11-05T03:42:08.371Z,3.45
2022-11-05T03:44:40.104Z,3.90
2022-11-05T03:47:12.496Z,3.67
2022-11-05T03:49:49.597Z,2.90
2022-11-05T03:52:20.276Z,3.13
2022-11-05T03:54:48.517Z,3.35
2022-11-05T03:57:22.325Z,3.78
2022-11-05T03:59:52.241Z,3.95
2022-11-05T04:02:23.158Z,3.95
2022-11-05T04:04:53.326Z,4.47
2022-11-05T04:07:38.696Z,3.80
2022-11-05T04:10:24.889Z,3.80
2022-11-05T04:13:10.641Z,3.80
2022-11-05T04:15:52.801Z,3.95
2022-11-05T04:18:20.790Z,3.72
2022-11-05T04:21:07.509Z,4.00
2022-11-05T04:23:52.952Z,4.05
2022-11-05T04:26:23.247Z,3.40
2022-11-05T04:29:08.800Z,3.92
2022-11-05T04:31:36.984Z,4.03
2022-11-05T04:34:05.293Z,2.90
2022-11-05T04:36:35.128Z,3.85
2022-11-05T04:39:03.142Z,4.45
2022-11-05T04:41:31.119Z,4.25
2022-11-05T04:43:59.090Z,4.00
2022-11-05T04:46:27.182Z,3.95
2022-11-05T04:48:55.280Z,4.47
2022-11-05T04:51:23.618Z,4.53
2022-11-05T04:53:52.971Z,4.75
2022-11-05T04:56:23.106Z,5.22
2022-11-05T04:58:52.007Z,4.90
2022-11-05T05:01:21.649Z,5.05
2022-11-05T05:03:50.528Z,5.18
2022-11-05T05:06:19.172Z,5.45
2022-11-05T05:08:48.429Z,5.63
2022-11-05T05:11:20.297Z,5.78
2022-11-05T05:13:48.877Z,5.47
2022-11-05T05:16:21.171Z,4.22
2022-11-05T05:18:49.740Z,5.18
2022-11-05T05:21:36.603Z,6.50
2022-11-05T05:24:05.391Z,5.88
2022-11-05T05:26:34.841Z,5.63
2022-11-05T05:29:02.813Z,5.55
2022-11-05T05:31:30.897Z,5.30
2022-11-05T05:33:58.993Z,4.57
2022-11-05T05:36:27.284Z,5.40
2022-11-05T05:38:55.173Z,5.13
2022-11-05T05:41:23.206Z,5.60
2022-11-05T05:43:52.675Z,5.60
2022-11-05T05:46:20.829Z,7.03
2022-11-05T05:48:51.030Z,5.20
2022-11-05T05:51:20.149Z,5.80
2022-11-05T05:53:48.440Z,5.63
2022-11-05T05:56:19.313Z,6.28
2022-11-05T05:58:47.929Z,6.32
2022-11-05T06:01:19.741Z,6.97
2022-11-05T06:03:48.919Z,6.22
2022-11-05T06:06:20.809Z,6.20
2022-11-05T06:08:49.068Z,7.30
2022-11-05T06:11:17.001Z,6.82
2022-11-05T06:13:45.130Z,6.25
2022-11-05T06:16:13.200Z,6.18
2022-11-05T06:18:42.661Z,6.97
2022-11-05T06:21:12.250Z,6.00
2022-11-05T06:23:42.471Z,6.82
2022-11-05T06:26:12.972Z,6.65
2022-11-05T06:28:42.093Z,7.22
2022-11-05T06:31:10.842Z,7.07
2022-11-05T06:33:39.177Z,6.90
2022-11-05T06:36:13.743Z,7.32
2022-11-05T06:38:41.700Z,7.30
2022-11-05T06:41:10.767Z,6.53
2022-11-05T06:43:39.330Z,6.55
2022-11-05T06:46:07.544Z,6.18
2022-11-05T06:48:36.181Z,4.97
2022-11-05T06:51:04.930Z,5.22
2022-11-05T06:53:34.323Z,4.32
2022-11-05T06:56:04.317Z,3.83
2022-11-05T06:58:32.568Z,3.80
2022-11-05T07:01:04.345Z,3.22
2022-11-05T07:03:32.484Z,3.33
2022-11-05T07:06:01.522Z,2.83
2022-11-05T07:08:33.028Z,2.80
2022-11-05T07:11:02.381Z,1.90
2022-11-05T07:13:30.463Z,2.03
2022-11-05T07:15:58.634Z,2.35
2022-11-05T07:18:26.625Z,1.90
2022-11-05T07:20:54.631Z,2.45
2022-11-05T07:23:22.743Z,2.00
2022-11-05T07:25:51.139Z,2.10
2022-11-05T07:28:20.468Z,1.83
2022-11-05T07:30:49.216Z,2.17
2022-11-05T07:33:17.300Z,2.45
2022-11-05T07:35:45.221Z,4.63
2022-11-05T07:38:13.181Z,12.70
2022-11-05T07:40:41.282Z,3.25
2022-11-05T07:43:09.571Z,2.83
2022-11-05T07:45:39.221Z,2.90
2022-11-05T07:48:07.790Z,3.22
2022-11-05T07:50:37.535Z,2.35
2022-11-05T07:53:07.416Z,2.13
2022-11-05T07:55:35.837Z,18.65
2022-11-05T07:58:04.234Z,3.15
2022-11-05T08:00:32.743Z,7.28
2022-11-05T08:03:09.851Z,4.88
2022-11-05T08:05:39.671Z,2.70
2022-11-05T08:08:08.874Z,4.75
2022-11-05T08:10:37.565Z,14.88
2022-11-05T08:13:06.321Z,3.90
2022-11-05T08:15:35.428Z,7.55
2022-11-05T08:18:07.089Z,3.42
2022-11-05T08:20:35.802Z,5.00
2022-11-05T08:23:04.178Z,3.75
2022-11-05T08:25:32.624Z,16.77
2022-11-05T08:28:02.483Z,3.40
2022-11-05T08:30:30.905Z,6.65
2022-11-05T08:32:59.941Z,3.15
2022-11-05T08:35:30.135Z,3.00
2022-11-05T08:38:00.579Z,3.53
2022-11-05T08:40:28.615Z,7.88
2022-11-05T08:42:58.079Z,2.78
2022-11-05T08:45:26.244Z,6.80
2022-11-05T08:47:59.901Z,3.95
2022-11-05T08:50:29.621Z,3.50
2022-11-05T08:52:57.879Z,3.80
2022-11-05T08:55:26.078Z,2.88
2022-11-05T08:57:57.199Z,2.97
2022-11-05T09:00:25.535Z,3.70
2022-11-05T09:02:53.576Z,3.42
2022-11-05T09:05:21.581Z,2.72
2022-11-05T09:07:53.134Z,2.60
2022-11-05T09:10:24.576Z,3.40
2022-11-05T09:12:52.631Z,2.78
2022-11-05T09:15:20.532Z,2.25
2022-11-05T09:17:48.420Z,2.20
2022-11-05T09:20:16.331Z,2.08
2022-11-05T09:22:44.274Z,2.22
2022-11-05T09:25:15.181Z,1.85
2022-11-05T09:27:43.202Z,1.75
2022-11-05T09:30:13.446Z,1.77
2022-11-05T09:32:42.183Z,1.70
2022-11-05T09:35:10.880Z,1.70
2022-11-05T09:37:39.229Z,1.55
2022-11-05T09:40:08.480Z,1.50
2022-11-05T09:42:42.225Z,1.33
2022-11-05T09:45:16.237Z,1.40
2022-11-05T09:47:48.479Z,1.38
2022-11-05T09:50:19.980Z,1.10
2022-11-05T09:52:48.091Z,1.40
2022-11-05T09:55:21.705Z,1.20
2022-11-05T09:57:54.320Z,1.10
2022-11-05T10:02:55.540Z,1.30
2022-11-05T10:05:25.715Z,1.00
2022-11-05T10:07:58.504Z,1.27
2022-11-05T10:10:39.421Z,1.20
2022-11-05T10:13:18.403Z,2.10
2022-11-05T10:15:55.189Z,0.73
2022-11-05T10:18:29.154Z,0.88
2022-11-05T10:20:57.532Z,1.20
2022-11-05T10:23:28.951Z,0.90
2022-11-05T10:26:00.936Z,0.80
2022-11-05T10:28:34.152Z,0.75
2022-11-05T10:31:04.578Z,0.77
2022-11-05T10:33:36.900Z,0.50
2022-11-05T10:36:08.558Z,0.60
2022-11-05T10:38:36.520Z,2.58
2022-11-05T10:41:18.808Z,1.70
2022-11-05T10:43:51.423Z,0.82
2022-11-05T10:49:17.221Z,0.75
2022-11-05T10:51:45.623Z,0.70
2022-11-05T10:54:20.696Z,0.50
2022-11-05T10:56:49.311Z,0.50
2022-11-05T10:59:23.852Z,0.65
2022-11-05T11:02:01.010Z,0.45
2022-11-05T11:04:37.425Z,0.50
2022-11-05T11:07:06.500Z,0.30
2022-11-05T11:09:37.714Z,0.73
2022-11-05T11:12:08.948Z,1.98
2022-11-05T11:14:38.330Z,0.50
2022-11-05T11:17:27.578Z,0.57
2022-11-05T11:20:21.939Z,0.40
2022-11-05T11:23:12.543Z,0.40
2022-11-05T11:25:48.869Z,0.43
2022-11-05T11:28:22.400Z,0.30
2022-11-05T11:30:57.399Z,0.50
2022-11-05T11:33:29.400Z,0.50
2022-11-05T11:35:57.936Z,0.57
2022-11-05T11:38:30.146Z,0.40
2022-11-05T11:41:14.739Z,0.45
2022-11-05T11:43:44.180Z,0.30
2022-11-05T11:46:18.547Z,0.20
2022-11-05T11:48:48.432Z,0.40
2022-11-05T11:51:20.219Z,0.40
2022-11-05T11:53:49.733Z,0.43
2022-11-05T11:56:20.102Z,0.80
2022-11-05T11:58:50.299Z,0.57
2022-11-05T12:01:36.479Z,0.70
2022-11-05T12:04:14.512Z,0.80
2022-11-05T12:06:49.037Z,1.00
2022-11-05T12:09:23.610Z,0.85
2022-11-05T12:12:00.816Z,0.80
2022-11-05T12:14:35.360Z,0.75
2022-11-05T12:17:11.480Z,0.80
2022-11-05T12:20:04.469Z,0.80
2022-11-05T12:22:43.689Z,0.65
2022-11-05T12:25:18.230Z,0.90
2022-11-05T12:28:11.764Z,0.80
2022-11-05T12:30:49.881Z,0.82
2022-11-05T12:33:40.006Z,0.82
2022-11-05T12:36:15.785Z,1.08
2022-11-05T12:39:07.581Z,0.95
2022-11-05T12:41:41.099Z,0.98
2022-11-05T12:44:22.300Z,0.88
2022-11-05T12:47:07.369Z,1.00
2022-11-05T12:50:00.335Z,1.40
2022-11-05T12:52:47.063Z,1.50
2022-11-05T12:55:18.597Z,0.95
2022-11-05T12:57:50.172Z,1.33
2022-11-05T13:00:21.408Z,0.90
2022-11-05T13:02:54.420Z,1.23
2022-11-05T13:05:34.644Z,1.23
2022-11-05T13:08:07.503Z,1.50
2022-11-05T13:10:39.264Z,1.80
2022-11-05T13:13:15.114Z,1.60
2022-11-05T13:15:50.576Z,1.83
2022-11-05T13:18:26.654Z,2.40
2022-11-05T13:20:59.749Z,2.92
2022-11-05T13:23:36.124Z,3.60
2022-11-05T13:26:08.836Z,4.70
2022-11-05T13:31:14.649Z,7.28
2022-11-05T13:33:45.639Z,9.95
2022-11-05T13:36:35.758Z,6.07
2022-11-05T13:39:11.868Z,7.82
2022-11-05T13:41:58.382Z,3.00
2022-11-05T13:44:54.655Z,5.40
2022-11-05T13:47:38.097Z,6.85
2022-11-05T13:50:46.914Z,6.80
2022-11-05T13:53:43.107Z,9.35
2022-11-05T13:56:24.462Z,5.32
2022-11-05T13:59:24.220Z,4.57
2022-11-05T14:01:56.974Z,4.30
2022-11-05T14:04:32.399Z,4.13
2022-11-05T14:07:10.143Z,3.85
2022-11-05T14:09:41.409Z,4.25
2022-11-05T14:12:20.946Z,4.05
2022-11-05T14:14:58.511Z,3.78
2022-11-05T14:17:34.099Z,3.30
2022-11-05T14:20:27.843Z,3.42
2022-11-05T14:23:30.782Z,3.72
2022-11-05T14:26:14.719Z,5.43
2022-11-05T14:28:48.493Z,4.78
2022-11-05T14:32:08.505Z,3.92
2022-11-05T14:34:48.668Z,3.60
2022-11-05T14:37:34.425Z,4.10
2022-11-05T14:40:27.071Z,3.38
2022-11-05T14:42:58.332Z,3.17
2022-11-05T14:45:30.575Z,3.47
2022-11-05T14:48:00.629Z,3.50
2022-11-05T14:50:34.451Z,3.80
2022-11-05T14:53:21.405Z,3.00
2022-11-05T14:55:59.979Z,3.70
2022-11-05T14:58:36.470Z,3.38
2022-11-05T15:01:07.427Z,3.00
2022-11-05T15:04:16.767Z,3.55
2022-11-05T15:07:14.733Z,8.20
2022-11-05T15:09:47.145Z,4.65
2022-11-05T15:12:21.239Z,3.60
2022-11-05T15:14:56.955Z,3.45
2022-11-05T15:17:29.990Z,3.13
2022-11-05T15:20:17.723Z,2.70
2022-11-05T15:22:48.986Z,4.30
2022-11-05T15:25:19.729Z,3.00
2022-11-05T15:28:00.604Z,2.20
2022-11-05T15:30:30.052Z,2.15
2022-11-05T15:33:09.590Z,2.80
2022-11-05T15:35:42.481Z,2.25
2022-11-05T15:40:59.750Z,2.10
2022-11-05T15:43:27.711Z,2.50
2022-11-05T15:46:06.404Z,2.00
2022-11-05T15:48:35.566Z,3.63
2022-11-05T15:51:03.821Z,5.32
2022-11-05T15:53:56.067Z,4.38
2022-11-05T15:56:27.827Z,4.07
2022-11-05T16:01:28.955Z,3.95
2022-11-05T16:04:01.079Z,3.35
2022-11-05T16:06:37.397Z,4.25
2022-11-05T16:09:05.716Z,3.58
2022-11-05T16:11:33.759Z,3.90
2022-11-05T16:14:16.346Z,7.15
2022-11-05T16:16:46.700Z,16.33
2022-11-05T16:19:39.852Z,8.52
2022-11-05T16:22:09.064Z,6.53
2022-11-05T16:24:37.457Z,3.97
2022-11-05T16:27:06.204Z,3.83
2022-11-05T16:29:36.281Z,3.10
2022-11-05T16:32:07.844Z,3.28
2022-11-05T16:34:49.112Z,3.60
2022-11-05T16:37:19.809Z,3.20
2022-11-05T16:39:48.115Z,3.70
2022-11-05T16:42:40.862Z,4.75
2022-11-05T16:45:12.582Z,4.18
2022-11-05T16:47:43.238Z,4.30
2022-11-05T16:50:20.985Z,4.45
2022-11-05T16:52:49.327Z,4.25
2022-11-05T16:55:18.465Z,4.90
2022-11-05T16:57:53.119Z,7.85
2022-11-05T17:00:23.077Z,8.10
2022-11-05T17:02:53.230Z,10.68
2022-11-05T17:05:24.133Z,11.20
2022-11-05T17:07:52.404Z,9.20
2022-11-05T17:10:21.273Z,9.63
2022-11-05T17:12:50.118Z,15.30
2022-11-05T17:15:23.917Z,27.65
2022-11-05T17:17:54.569Z,33.00
2022-11-05T17:20:39.956Z,13.00
2022-11-05T17:23:10.565Z,6.25
2022-11-05T17:25:39.444Z,4.70
2022-11-05T17:28:07.990Z,3.85
2022-11-05T17:30:36.162Z,3.28
2022-11-05T17:33:05.830Z,4.57
2022-11-05T17:35:33.787Z,3.88
2022-11-05T17:38:02.072Z,3.95
2022-11-05T17:40:30.444Z,4.68
2022-11-05T17:42:58.591Z,4.13
2022-11-05T17:45:26.654Z,7.13
2022-11-05T17:47:54.813Z,11.95
2022-11-05T17:50:24.367Z,6.53
2022-11-05T17:52:52.339Z,3.33
2022-11-05T17:55:20.329Z,3.08
2022-11-05T17:57:50.305Z,3.42
2022-11-05T18:00:21.555Z,4.43
2022-11-05T18:02:50.285Z,16.65
2022-11-05T18:05:19.507Z,18.55
2022-11-05T18:07:55.552Z,11.73
2022-11-05T18:10:24.073Z,8.05
2022-11-05T18:12:52.195Z,23.60
2022-11-05T18:15:20.211Z,18.83
2022-11-05T18:17:48.350Z,39.72
2022-11-05T18:20:19.379Z,9.80
2022-11-05T18:22:49.346Z,9.52
2022-11-05T18:25:19.429Z,10.43
2022-11-05T18:27:47.557Z,10.35
2022-11-05T18:30:15.987Z,6.75
2022-11-05T18:32:44.738Z,6.28
2022-11-05T18:35:14.464Z,7.25
2022-11-05T18:37:42.724Z,6.88
2022-11-05T18:40:11.993Z,7.45
2022-11-05T18:42:41.587Z,6.13
2022-11-05T18:45:11.273Z,5.65
2022-11-05T18:47:39.446Z,5.15
2022-11-05T18:50:09.328Z,5.35
2022-11-05T18:52:37.707Z,6.32
2022-11-05T18:55:06.545Z,5.45
2022-11-05T18:57:35.130Z,5.70
2022-11-05T19:00:05.890Z,6.13
2022-11-05T19:02:34.392Z,5.20
2022-11-05T19:07:50.745Z,5.60
2022-11-05T19:10:19.126Z,5.97
2022-11-05T19:12:47.178Z,5.28
2022-11-05T19:15:16.631Z,6.07
2022-11-05T19:17:44.688Z,5.25
2022-11-05T19:20:13.160Z,6.13
2022-11-05T19:22:41.267Z,6.10
2022-11-05T19:25:09.661Z,6.57
2022-11-05T19:27:38.630Z,6.53
2022-11-05T19:30:07.230Z,7.38
2022-11-05T19:32:36.665Z,6.90
2022-11-05T19:35:04.835Z,6.88
2022-11-05T19:37:32.927Z,6.00
2022-11-05T19:40:00.979Z,6.43
2022-11-05T19:42:28.983Z,6.72
2022-11-05T19:45:06.872Z,6.47
2022-11-05T19:47:46.394Z,6.88
2022-11-05T19:50:14.438Z,6.90
2022-11-05T19:52:42.323Z,6.57
2022-11-05T19:55:12.327Z,5.70
2022-11-05T19:57:40.595Z,5.95
2022-11-05T20:00:09.944Z,6.20
2022-11-05T20:02:38.043Z,5.90
2022-11-05T20:05:07.838Z,5.32
2022-11-05T20:07:35.795Z,5.85
2022-11-05T20:10:04.052Z,4.82
2022-11-05T20:12:32.173Z,6.00
2022-11-05T20:15:00.125Z,5.50
2022-11-05T20:17:28.157Z,6.35
2022-11-05T20:19:56.088Z,6.85
2022-11-05T20:22:25.537Z,5.68
2022-11-05T20:24:53.463Z,5.88
2022-11-05T20:27:21.436Z,6.00
2022-11-05T20:29:49.396Z,5.30
2022-11-05T20:32:17.318Z,6.13
2022-11-05T20:34:45.644Z,5.88
2022-11-05T20:37:13.575Z,5.95
2022-11-05T20:39:42.944Z,5.93
2022-11-05T20:42:10.949Z,5.75
2022-11-05T20:44:38.893Z,6.10
2022-11-05T20:47:06.865Z,6.53
2022-11-05T20:49:34.797Z,5.47
2022-11-05T20:52:02.736Z,5.22
2022-11-05T20:54:30.632Z,5.28
2022-11-05T20:57:00.404Z,5.53
2022-11-05T20:59:28.350Z,4.85
2022-11-05T21:01:56.388Z,4.55
2022-11-05T21:04:24.619Z,5.15
2022-11-05T21:06:53.644Z,5.10
2022-11-05T21:09:21.696Z,6.00
2022-11-05T21:12:07.012Z,5.50
2022-11-05T21:14:36.498Z,4.85
2022-11-05T21:17:04.894Z,4.93
2022-11-05T21:19:34.382Z,4.63
2022-11-05T21:22:07.747Z,4.25
2022-11-05T21:24:36.316Z,5.28
2022-11-05T21:27:04.375Z,4.35
2022-11-05T21:29:32.383Z,6.60
2022-11-05T21:32:01.711Z,5.90
2022-11-05T21:34:29.684Z,4.80
2022-11-05T21:36:57.829Z,4.50
2022-11-05T21:39:27.724Z,4.03
2022-11-05T21:41:55.656Z,4.03
2022-11-05T21:44:23.682Z,4.53
2022-11-05T21:46:52.440Z,4.38
2022-11-05T21:49:21.944Z,4.20
2022-11-05T21:52:07.233Z,4.65
2022-11-05T21:54:52.612Z,4.22
2022-11-05T21:57:38.227Z,4.30
2022-11-05T22:00:08.664Z,4.72
2022-11-05T22:02:36.962Z,4.72
2022-11-05T22:05:07.836Z,4.88
2022-11-05T22:07:37.844Z,4.40
2022-11-05T22:10:14.692Z,4.68
2022-11-05T22:12:44.371Z,4.63
2022-11-05T22:15:12.883Z,4.15
2022-11-05T22:17:46.251Z,4.20
2022-11-05T22:20:16.719Z,4.20
2022-11-05T22:22:45.149Z,4.10
2022-11-05T22:25:13.992Z,3.85
2022-11-05T22:27:42.231Z,4.18
2022-11-05T22:30:10.951Z,3.65
2022-11-05T22:32:39.339Z,4.45
2022-11-05T22:35:08.330Z,4.78
2022-11-05T22:37:37.818Z,4.53
2022-11-05T22:40:06.595Z,4.20
2022-11-05T22:42:34.640Z,4.28
2022-11-05T22:45:05.500Z,3.95
2022-11-05T22:47:33.450Z,4.10
2022-11-05T22:50:01.446Z,3.75
2022-11-05T22:52:29.375Z,4.05
2022-11-05T22:54:58.721Z,4.10
2022-11-05T22:57:26.964Z,3.80
2022-11-05T22:59:54.814Z,3.97
2022-11-05T23:02:22.908Z,3.33
2022-11-05T23:04:52.745Z,3.38
2022-11-05T23:07:37.983Z,3.60
2022-11-05T23:10:27.229Z,3.17
2022-11-05T23:12:56.284Z,3.90
2022-11-05T23:15:41.541Z,3.80
2022-11-05T23:18:27.944Z,3.83
2022-11-05T23:21:13.551Z,3.53
2022-11-05T23:23:58.682Z,4.00
2022-11-05T23:26:47.855Z,3.60
2022-11-05T23:29:15.798Z,3.72
2022-11-05T23:32:01.067Z,3.35
2022-11-05T23:34:29.878Z,4.05
2022-11-05T23:37:15.350Z,4.25
2022-11-05T23:39:43.307Z,3.38
2022-11-05T23:42:30.527Z,3.25
2022-11-05T23:45:16.010Z,4.05
2022-11-05T23:48:01.304Z,3.83
2022-11-05T23:50:33.229Z,3.28
2022-11-05T23:53:05.120Z,3.33
2022-11-05T23:55:33.085Z,3.85
2022-11-05T23:58:02.683Z,3.40
